.
WxDataArchive / Data Records for 2014-01-13
2014-01-12 January 2014 2014-01-14

Data Records for Monday, 13 January 2014

Time	Temp	Chill	HIndex	Humid	Dewpt	 Wind 	HiWind	WindDir	Rain 	Barom 
-----	----	-----	------	-----	-----	------	------	-------	-----	----- 
00:00	39.5	39.5	39.5	71	30.9	1	5	68	0.00	29.766 
00:05	39.6	39.6	39.6	71	31.0	1	3	270	0.00	29.766 
00:10	39.8	39.8	39.8	70	30.8	1	5	292	0.00	29.766 
00:15	40.1	40.1	40.1	69	30.8	1	4	270	0.00	29.762 
00:20	40.3	40.3	40.3	69	31.0	1	9	248	0.00	29.762 
00:25	40.3	40.3	40.3	69	31.0	1	3	248	0.00	29.762 
00:30	40.3	40.3	40.3	69	31.0	1	7	292	0.00	29.758 
00:35	40.3	40.3	40.3	68	30.6	1	5	248	0.00	29.758 
00:40	40.5	40.5	40.5	68	30.8	0	3	270	0.00	29.758 
00:45	40.5	40.5	40.5	68	30.8	1	3	270	0.00	29.747 
00:50	40.6	40.6	40.6	68	30.9	1	5	270	0.00	29.747 
00:55	40.8	40.8	40.8	67	30.7	0	4	270	0.00	29.747 
01:00	40.9	40.9	40.9	67	30.8	0	2	248	0.00	29.746 
01:05	40.9	40.9	40.9	67	30.8	0	2	248	0.00	29.746 
01:10	40.9	40.9	40.9	67	30.8	0	2	248	0.00	29.746 
01:15	40.9	40.9	40.9	67	30.8	1	3	315	0.00	29.745 
01:20	40.9	40.9	40.9	67	30.8	0	3	270	0.00	29.745 
01:25	40.9	40.9	40.9	66	30.4	1	4	90	0.00	29.745 
01:30	40.8	40.8	40.8	67	30.7	1	4	90	0.00	29.744 
01:35	40.8	40.8	40.8	67	30.7	0	4	270	0.00	29.744 
01:40	40.6	40.6	40.6	67	30.5	0	3	225	0.00	29.744 
01:45	40.6	40.6	40.6	67	30.5	1	2	315	0.00	29.740 
01:50	40.8	40.8	40.8	67	30.7	1	3	90	0.00	29.740 
01:55	40.8	40.8	40.8	67	30.7	1	3	338	0.00	29.740 
02:00	40.6	40.6	40.6	67	30.5	0	2	270	0.00	29.735 
02:05	40.5	40.5	40.5	67	30.4	0	3	270	0.00	29.735 
02:10	40.3	40.3	40.3	68	30.6	1	3	270	0.00	29.735 
02:15	40.5	40.5	40.5	67	30.4	0	2	248	0.00	29.736 
02:20	40.5	40.5	40.5	67	30.4	0	5	248	0.00	29.736 
02:25	40.5	40.5	40.5	67	30.4	0	3	270	0.00	29.736 
02:30	40.5	40.5	40.5	67	30.4	0	4	68	0.00	29.731 
02:35	40.3	40.3	40.3	67	30.2	0	3	45	0.00	29.731 
02:40	40.3	40.3	40.3	67	30.2	0	3	90	0.00	29.731 
02:45	40.2	40.2	40.2	67	30.1	0	2	248	0.00	29.730 
02:50	40.2	40.2	40.2	67	30.1	0	2	225	0.00	29.730 
02:55	40.2	40.2	40.2	67	30.1	0	2	225	0.00	29.730 
03:00	40.1	40.1	40.1	67	30.0	0	2	225	0.00	29.727 
03:05	40.1	40.1	40.1	67	30.0	0	2	248	0.00	29.727 
03:10	40.2	40.2	40.2	67	30.1	0	2	248	0.00	29.727 
03:15	40.2	40.2	40.2	67	30.1	0	3	90	0.00	29.719 
03:20	40.2	40.2	40.2	66	29.8	0	2	90	0.00	29.719 
03:25	40.2	40.2	40.2	66	29.8	0	1	90	0.00	29.719 
03:30	40.2	40.2	40.2	66	29.8	0	2	90	0.00	29.713 
03:35	40.3	40.3	40.3	66	29.9	0	2	90	0.00	29.713 
03:40	40.5	40.5	40.5	65	29.7	0	2	90	0.00	29.713 
03:45	40.5	40.5	40.5	65	29.7	0	2	338	0.00	29.710 
03:50	40.5	40.5	40.5	65	29.7	0	1	338	0.00	29.710 
03:55	40.5	40.5	40.5	65	29.7	0	2	338	0.00	29.710 
04:00	40.5	40.5	40.5	65	29.7	0	1	338	0.00	29.703 
04:05	40.5	40.5	40.5	65	29.7	0	2	338	0.00	29.703 
04:10	40.5	40.5	40.5	66	30.0	0	2	338	0.00	29.703 
04:15	40.5	40.5	40.5	65	29.7	0	3	22	0.00	29.700 
04:20	40.3	40.3	40.3	66	29.9	0	3	22	0.00	29.700 
04:25	40.3	40.3	40.3	66	29.9	0	2	22	0.00	29.700 
04:30	40.3	40.3	40.3	66	29.9	0	1	248	0.00	29.696 
04:35	40.2	40.2	40.2	66	29.8	0	1	248	0.00	29.696 
04:40	40.1	40.1	40.1	66	29.7	0	3	248	0.00	29.696 
04:45	40.1	40.1	40.1	67	30.0	0	2	248	0.00	29.696 
04:50	40.1	40.1	40.1	67	30.0	0	2	248	0.00	29.696 
04:55	40.1	40.1	40.1	67	30.0	0	4	248	0.00	29.696 
05:00	40.1	40.1	40.1	67	30.0	0	1	45	0.00	29.696 
05:05	40.1	40.1	40.1	67	30.0	0	2	270	0.00	29.696 
05:10	40.2	40.2	40.2	67	30.1	0	2	270	0.00	29.696 
05:15	40.2	40.2	40.2	67	30.1	0	2	270	0.00	29.695 
05:20	40.3	40.3	40.3	67	30.2	0	3	248	0.00	29.695 
05:25	40.3	40.3	40.3	66	29.9	0	1	248	0.00	29.695 
05:30	40.3	40.3	40.3	66	29.9	0	2	248	0.00	29.691 
05:35	40.3	40.3	40.3	66	29.9	0	2	248	0.00	29.691 
05:40	40.3	40.3	40.3	67	30.2	0	2	248	0.00	29.691 
05:45	40.3	40.3	40.3	67	30.2	0	2	248	0.00	29.681 
05:50	40.5	40.5	40.5	67	30.4	0	4	248	0.00	29.681 
05:55	40.5	40.5	40.5	66	30.0	0	4	270	0.00	29.681 
06:00	40.6	40.6	40.6	66	30.1	1	4	270	0.00	29.674 
06:05	40.6	40.6	40.6	66	30.1	1	3	292	0.00	29.674 
06:10	40.8	40.8	40.8	66	30.3	0	2	248	0.00	29.674 
06:15	40.8	40.8	40.8	66	30.3	1	3	248	0.00	29.674 
06:20	40.8	40.8	40.8	66	30.3	0	4	248	0.00	29.674 
06:25	40.9	40.9	40.9	66	30.4	1	4	248	0.00	29.674 
06:30	40.9	40.9	40.9	66	30.4	1	3	248	0.00	29.669 
06:35	41.1	41.1	41.1	66	30.6	1	4	248	0.00	29.669 
06:40	41.1	41.1	41.1	66	30.6	0	2	248	0.00	29.669 
06:45	41.1	41.1	41.1	66	30.6	0	2	248	0.00	29.664 
06:50	41.1	41.1	41.1	66	30.6	0	2	248	0.00	29.664 
06:55	40.9	40.9	40.9	66	30.4	0	3	248	0.00	29.664 
07:00	40.9	40.9	40.9	67	30.8	0	2	248	0.00	29.664 
07:05	40.9	40.9	40.9	67	30.8	0	2	248	0.00	29.664 
07:10	40.9	40.9	40.9	67	30.8	1	4	68	0.00	29.664 
07:15	40.9	40.9	40.9	67	30.8	1	4	270	0.00	29.665 
07:20	40.9	40.9	40.9	67	30.8	0	3	270	0.00	29.665 
07:25	40.9	40.9	40.9	67	30.8	0	2	270	0.00	29.665 
07:30	40.9	40.9	40.9	67	30.8	0	2	270	0.00	29.665 
07:35	40.9	40.9	40.9	67	30.8	0	2	270	0.00	29.665 
07:40	40.9	40.9	40.9	67	30.8	0	2	270	0.00	29.665 
07:45	40.9	40.9	40.9	67	30.8	1	2	270	0.00	29.662 
07:50	41.2	41.2	41.2	67	31.1	1	3	270	0.00	29.662 
07:55	41.2	41.2	41.2	67	31.1	1	3	248	0.00	29.662 
08:00	41.3	41.3	41.3	67	31.2	1	3	270	0.00	29.646 
08:05	41.3	41.3	41.3	67	31.2	0	2	292	0.00	29.646 
08:10	41.5	41.5	41.5	67	31.4	0	3	270	0.00	29.646 
08:15	41.5	41.5	41.5	67	31.4	0	2	270	0.00	29.639 
08:20	41.5	41.5	41.5	67	31.4	0	3	292	0.00	29.639 
08:25	41.5	41.5	41.5	67	31.4	0	2	292	0.00	29.639 
08:30	41.5	41.5	41.5	67	31.4	0	1	270	0.00	29.628 
08:35	41.5	41.5	41.5	67	31.4	0	1	270	0.00	29.628 
08:40	41.6	41.6	41.6	67	31.5	1	3	270	0.00	29.628 
08:45	41.6	41.6	41.6	67	31.5	0	2	22	0.00	29.627 
08:50	41.6	41.6	41.6	67	31.5	0	2	22	0.00	29.627 
08:55	41.6	41.6	41.6	67	31.5	0	1	22	0.00	29.627 
09:00	41.6	41.6	41.6	67	31.5	1	2	22	0.00	29.621 
09:05	41.8	41.8	41.8	67	31.7	0	1	315	0.00	29.621 
09:10	41.9	41.9	41.9	67	31.8	0	2	315	0.00	29.621 
09:15	41.9	41.9	41.9	67	31.8	0	2	315	0.00	29.632 
09:20	42.1	42.1	42.1	66	31.6	0	2	315	0.00	29.632 
09:25	42.1	42.1	42.1	66	31.6	0	2	315	0.00	29.632 
09:30	42.2	42.2	42.2	66	31.7	0	2	315	0.00	29.634 
09:35	42.3	42.3	42.3	66	31.8	0	2	315	0.00	29.634 
09:40	42.5	42.5	42.5	66	32.0	0	4	68	0.00	29.634 
09:45	42.5	42.5	42.5	66	32.0	0	2	68	0.00	29.634 
09:50	42.6	42.6	42.6	66	32.0	0	3	68	0.00	29.634 
09:55	42.5	42.5	42.5	66	32.0	0	2	68	0.00	29.634 
10:00	42.6	42.6	42.6	66	32.0	1	3	68	0.00	29.638 
10:05	42.6	42.6	42.6	66	32.0	0	2	68	0.00	29.638 
10:10	42.8	42.8	42.8	66	32.2	0	2	68	0.00	29.638 
10:15	42.9	42.9	42.9	66	32.3	0	3	68	0.00	29.658 
10:20	43.2	43.2	43.2	65	32.2	1	4	315	0.00	29.658 
10:25	43.3	43.3	43.3	65	32.3	1	5	112	0.00	29.658 
10:30	43.3	43.3	43.3	65	32.3	1	3	112	0.00	29.651 
10:35	43.5	43.5	43.5	65	32.5	1	4	248	0.00	29.651 
10:40	43.6	43.6	43.6	65	32.6	1	4	248	0.00	29.651 
10:45	43.6	43.6	43.6	65	32.6	0	3	270	0.00	29.646 
10:50	43.6	43.6	43.6	65	32.6	0	3	270	0.00	29.646 
10:55	43.8	43.8	43.8	65	32.8	1	2	270	0.00	29.646 
11:00	43.8	43.8	43.8	65	32.8	0	2	270	0.00	29.644 
11:05	43.9	43.9	43.9	65	32.9	0	2	270	0.00	29.644 
11:10	43.9	43.9	43.9	65	32.9	0	3	270	0.00	29.644 
11:15	44.1	44.1	44.1	65	33.1	1	3	22	0.00	29.634 
11:20	44.2	44.2	44.2	65	33.2	1	4	90	0.00	29.634 
11:25	44.2	44.2	44.2	65	33.2	1	3	90	0.00	29.634 
11:30	44.5	44.5	44.5	65	33.5	1	4	22	0.00	29.638 
11:35	44.6	44.6	44.6	65	33.6	1	3	22	0.00	29.638 
11:40	44.8	44.8	44.8	65	33.8	1	3	315	0.00	29.638 
11:45	45.1	45.1	45.1	65	34.0	1	3	315	0.00	29.630 
11:50	45.4	45.4	45.4	65	34.3	1	3	270	0.00	29.630 
11:55	45.4	45.4	45.4	65	34.3	1	3	270	0.00	29.630 
12:00	45.5	45.5	45.5	65	34.4	1	3	270	0.00	29.622 
12:05	45.7	45.7	45.7	66	35.0	1	5	270	0.00	29.622 
12:10	45.8	45.8	45.8	66	35.1	1	4	270	0.00	29.622 
12:15	45.8	45.8	45.8	66	35.1	1	4	248	0.00	29.613 
12:20	46.0	46.0	46.0	66	35.3	2	9	248	0.00	29.613 
12:25	46.1	46.1	46.1	67	35.8	2	7	248	0.00	29.613 
12:30	46.1	46.1	46.1	67	35.8	1	5	248	0.00	29.603 
12:35	46.1	46.1	46.1	67	35.8	1	4	248	0.00	29.603 
12:40	46.1	46.1	46.1	68	36.1	1	4	248	0.00	29.603 
12:45	46.0	46.0	46.0	68	36.0	1	4	248	0.00	29.595 
12:50	45.8	45.8	45.8	69	36.2	1	6	248	0.00	29.595 
12:55	45.8	45.8	45.8	69	36.2	1	4	248	0.00	29.595 
13:00	45.7	45.7	45.7	69	36.1	1	5	248	0.00	29.592 
13:05	45.7	45.7	45.7	70	36.5	1	5	248	0.00	29.592 
13:10	45.5	45.5	45.5	70	36.3	1	5	248	0.00	29.592 
13:15	45.5	45.5	45.5	71	36.7	1	5	248	0.00	29.592 
13:20	45.5	45.5	45.5	71	36.7	1	4	225	0.00	29.592 
13:25	45.4	45.4	45.4	72	36.9	1	5	248	0.00	29.592 
13:30	45.4	45.4	45.4	72	36.9	1	4	248	0.00	29.591 
13:35	45.4	45.4	45.4	73	37.3	1	3	248	0.00	29.591 
13:40	45.4	45.4	45.4	73	37.3	2	6	270	0.00	29.591 
13:45	45.4	45.4	45.4	73	37.3	1	5	248	0.00	29.589 
13:50	45.2	45.2	45.2	74	37.4	1	4	248	0.00	29.589 
13:55	45.2	45.2	45.2	74	37.4	1	3	248	0.00	29.589 
14:00	45.2	45.2	45.2	74	37.4	1	5	270	0.00	29.587 
14:05	45.2	45.2	45.2	75	37.8	1	5	270	0.00	29.587 
14:10	45.2	45.2	45.2	75	37.8	1	5	248	0.00	29.587 
14:15	45.2	45.2	45.2	75	37.8	1	5	248	0.00	29.585 
14:20	45.2	45.2	45.2	76	38.1	1	3	248	0.00	29.585 
14:25	45.2	45.2	45.2	76	38.1	1	5	248	0.00	29.585 
14:30	45.2	45.2	45.2	76	38.1	0	2	248	0.00	29.589 
14:35	45.4	45.4	45.4	76	38.3	1	4	248	0.00	29.589 
14:40	45.4	45.4	45.4	76	38.3	2	4	270	0.00	29.589 
14:45	45.5	45.5	45.5	76	38.4	1	5	270	0.00	29.592 
14:50	45.5	45.5	45.5	77	38.7	1	4	248	0.00	29.592 
14:55	45.4	45.4	45.4	77	38.6	1	4	248	0.00	29.592 
15:00	45.4	45.4	45.4	77	38.6	1	4	270	0.00	29.593 
15:05	45.7	45.7	45.7	77	38.9	1	6	248	0.00	29.593 
15:10	45.8	45.8	45.8	77	39.0	1	4	248	0.00	29.593 
15:15	46.0	46.0	46.0	77	39.2	1	4	248	0.00	29.593 
15:20	46.1	46.1	46.1	77	39.3	1	5	248	0.00	29.593 
15:25	46.2	46.2	46.2	77	39.4	2	6	248	0.00	29.593 
15:30	46.2	46.2	46.2	77	39.4	1	6	292	0.00	29.596 
15:35	46.2	46.2	46.2	77	39.4	1	4	248	0.00	29.596 
15:40	46.2	46.2	46.2	77	39.4	1	6	248	0.00	29.596 
15:45	46.2	46.2	46.2	77	39.4	1	4	270	0.00	29.601 
15:50	46.5	46.5	46.5	77	39.7	1	6	270	0.00	29.601 
15:55	46.7	46.7	46.7	77	39.9	1	5	248	0.00	29.601 
16:00	46.7	46.7	46.7	77	39.9	1	4	248	0.00	29.600 
16:05	46.8	46.8	46.8	77	40.0	1	4	248	0.00	29.600 
16:10	46.8	46.8	46.8	77	40.0	1	4	248	0.00	29.600 
16:15	46.7	46.7	46.7	77	39.9	1	4	248	0.00	29.602 
16:20	46.5	46.5	46.5	77	39.7	1	4	248	0.00	29.602 
16:25	46.5	46.5	46.5	77	39.7	1	5	248	0.00	29.602 
16:30	46.5	46.5	46.5	77	39.7	1	5	225	0.00	29.605 
16:35	46.4	46.4	46.4	77	39.6	1	5	248	0.00	29.605 
16:40	46.4	46.4	46.4	77	39.6	1	4	270	0.00	29.605 
16:45	46.1	46.1	46.1	78	39.6	0	2	270	0.00	29.610 
16:50	46.1	46.1	46.1	78	39.6	1	4	248	0.00	29.610 
16:55	46.0	46.0	46.0	79	39.9	1	5	248	0.00	29.610 
17:00	45.8	45.8	45.8	79	39.7	1	4	270	0.00	29.617 
17:05	45.7	45.7	45.7	79	39.6	1	4	270	0.00	29.617 
17:10	45.4	45.4	45.4	80	39.6	1	3	270	0.00	29.617 
17:15	45.2	45.2	45.2	80	39.4	1	4	270	0.00	29.622 
17:20	44.9	44.9	44.9	81	39.4	0	2	112	0.00	29.622 
17:25	44.8	44.8	44.8	81	39.3	0	2	112	0.00	29.622 
17:30	44.6	44.6	44.6	81	39.1	0	3	112	0.00	29.624 
17:35	44.5	44.5	44.5	82	39.4	0	1	112	0.00	29.624 
17:40	44.3	44.3	44.3	82	39.2	0	2	112	0.00	29.624 
17:45	44.2	44.2	44.2	82	39.1	0	2	112	0.00	29.627 
17:50	44.1	44.1	44.1	83	39.3	0	3	112	0.00	29.627 
17:55	44.1	44.1	44.1	83	39.3	0	2	112	0.00	29.627 
18:00	43.9	43.9	43.9	83	39.1	0	2	112	0.00	29.631 
18:05	43.8	43.8	43.8	83	39.0	0	1	112	0.00	29.631 
18:10	43.6	43.6	43.6	84	39.1	0	1	112	0.00	29.631 
18:15	43.5	43.5	43.5	84	39.0	0	1	112	0.00	29.640 
18:20	43.3	43.3	43.3	84	38.8	0	1	112	0.00	29.640 
18:25	43.2	43.2	43.2	84	38.7	0	1	112	0.00	29.640 
18:30	43.1	43.1	43.1	84	38.6	0	1	112	0.00	29.640 
18:35	42.9	42.9	42.9	85	38.7	0	2	112	0.00	29.640 
18:40	42.9	42.9	42.9	85	38.7	0	1	112	0.00	29.640 
18:45	42.8	42.8	42.8	85	38.6	0	1	112	0.00	29.642 
18:50	42.5	42.5	42.5	85	38.3	0	1	112	0.00	29.642 
18:55	42.3	42.3	42.3	85	38.1	0	0	---	0.00	29.642 
19:00	42.1	42.1	42.1	85	37.9	0	1	112	0.00	29.652 
19:05	41.9	41.9	41.9	86	38.0	0	1	112	0.00	29.652 
19:10	41.8	41.8	41.8	86	37.9	0	1	112	0.00	29.652 
19:15	41.8	41.8	41.8	87	38.2	0	1	112	0.00	29.658 
19:20	41.8	41.8	41.8	87	38.2	0	2	112	0.00	29.658 
19:25	41.8	41.8	41.8	87	38.2	0	1	112	0.00	29.658 
19:30	41.6	41.6	41.6	87	38.0	0	1	112	0.00	29.666 
19:35	41.6	41.6	41.6	87	38.0	0	3	112	0.00	29.666 
19:40	41.6	41.6	41.6	87	38.0	0	2	112	0.00	29.666 
19:45	41.6	41.6	41.6	87	38.0	0	1	112	0.00	29.671 
19:50	41.5	41.5	41.5	86	37.6	1	4	248	0.00	29.671 
19:55	41.6	41.6	41.6	85	37.4	1	3	248	0.00	29.671 
20:00	41.8	41.8	41.8	84	37.3	1	5	248	0.00	29.673 
20:05	41.8	41.8	41.8	83	37.0	1	3	248	0.00	29.673 
20:10	41.9	41.9	41.9	82	36.8	1	4	248	0.00	29.673 
20:15	42.1	42.1	42.1	81	36.7	1	6	270	0.00	29.673 
20:20	42.1	42.1	42.1	80	36.4	1	4	248	0.00	29.673 
20:25	41.9	41.9	41.9	80	36.2	1	5	248	0.00	29.673 
20:30	41.8	41.8	41.8	80	36.1	1	4	248	0.00	29.680 
20:35	41.6	41.6	41.6	80	35.9	1	3	248	0.00	29.680 
20:40	41.5	41.5	41.5	80	35.8	1	3	248	0.00	29.680 
20:45	41.3	41.3	41.3	80	35.6	1	3	248	0.00	29.688 
20:50	41.1	41.1	41.1	80	35.4	1	3	248	0.00	29.688 
20:55	40.8	40.8	40.8	81	35.4	0	2	248	0.00	29.688 
21:00	40.6	40.6	40.6	81	35.2	0	2	248	0.00	29.691 
21:05	40.3	40.3	40.3	81	34.9	0	3	248	0.00	29.691 
21:10	40.1	40.1	40.1	81	34.7	0	2	248	0.00	29.691 
21:15	39.9	39.9	39.9	82	34.9	0	2	248	0.00	29.693 
21:20	39.6	39.6	39.6	82	34.6	0	2	248	0.00	29.693 
21:25	39.5	39.5	39.5	83	34.8	0	2	248	0.00	29.693 
21:30	39.2	39.2	39.2	83	34.5	0	2	248	0.00	29.694 
21:35	39.1	39.1	39.1	82	34.1	0	2	248	0.00	29.694 
21:40	38.8	38.8	38.8	82	33.8	0	1	248	0.00	29.694 
21:45	38.6	38.6	38.6	82	33.6	0	2	248	0.00	29.696 
21:50	38.5	38.5	38.5	82	33.5	0	3	248	0.00	29.696 
21:55	38.3	38.3	38.3	81	33.0	0	2	248	0.00	29.696 
22:00	38.3	38.3	38.3	81	33.0	1	2	248	0.00	29.701 
22:05	38.2	38.2	38.2	81	32.9	0	2	248	0.00	29.701 
22:10	38.0	38.0	38.0	80	32.4	0	2	248	0.00	29.701 
22:15	38.0	38.0	38.0	80	32.4	0	2	248	0.00	29.704 
22:20	37.9	37.9	37.9	80	32.3	0	2	248	0.00	29.704 
22:25	37.8	37.8	37.8	80	32.2	0	2	248	0.00	29.704 
22:30	37.6	37.6	37.6	80	32.0	0	1	248	0.00	29.706 
22:35	37.3	37.3	37.3	80	31.7	0	2	248	0.00	29.706 
22:40	37.2	37.2	37.2	80	31.6	0	2	248	0.00	29.706 
22:45	37.0	37.0	37.0	80	31.4	0	2	248	0.00	29.712 
22:50	36.9	36.9	36.9	81	31.6	1	3	248	0.00	29.712 
22:55	36.9	36.9	36.9	81	31.6	0	3	248	0.00	29.712 
23:00	36.8	36.8	36.8	81	31.5	1	4	248	0.00	29.711 
23:05	36.8	36.8	36.8	81	31.5	2	4	248	0.00	29.711 
23:10	36.8	36.8	36.8	81	31.5	1	3	248	0.00	29.711 
23:15	36.6	36.6	36.6	81	31.3	0	1	248	0.00	29.715 
23:20	36.3	36.3	36.3	81	31.0	0	1	248	0.00	29.715 
23:25	36.2	36.2	36.2	82	31.2	1	3	248	0.00	29.715 
23:30	36.0	36.0	36.0	82	31.0	0	2	248	0.00	29.722 
23:35	36.0	36.0	36.0	83	31.3	1	3	248	0.00	29.722 
23:40	35.9	35.9	35.9	83	31.2	1	3	248	0.00	29.722 
23:45	35.8	35.8	35.8	83	31.2	1	4	248	0.00	29.721 
23:50	35.6	35.6	35.6	84	31.3	0	2	248	0.00	29.721 
23:55	35.5	35.5	35.5	84	31.2	2	4	248	0.00	29.721 

CoCoRaHS
IN-AL-39
A2 Web Hosting
Creative Commons License
GoDaddy
search engine by freefind advanced

loaded 2018-11-16 11:34:44 • last modified 2010-11-18 10:43:29
Privacy PolicyDisclaimer
• wx.awcolley.com is powered by PmWiki v.2002016 •
• all content (unless otherwise noted) © 2018 A W Colley